Dundee, Mississippi
Current Conditions -  °F | °C
As of 7:35 AM on Saturday 25 Oct 2014 (Local Time) from KUTA Reporting Station
Haze Haze  
Wind Chill: 52°   Ceiling: Unl
Heat Index: 52°   Visibility: 4mi
Dew Point: 50°   Wind: 5mph
Humidity: 94%   Direction: 170°S
Pressure: 30.11"   Gusts: NA
Location:  34.52°N, 90.46°W
Report Text: KUTA 251235Z AUTO 17004KT 4SM BR CLR 11/10 A3011 RMK AO2
Loading
Personal Weather Stations






























Interactive Weather Map
Tropical Storm Tracking
New forecast layout! Learn more

10-Day Weather Forecast

Advertisements
Track Severe Weather on mobile